createdAt,value
2018-05-09T00:01:05.710Z,3.03
2018-05-09T00:03:32.427Z,3.80
2018-05-09T00:05:59.162Z,3.27
2018-05-09T00:08:26.696Z,2.83
2018-05-09T00:10:53.393Z,3.10
2018-05-09T00:13:20.096Z,3.20
2018-05-09T00:15:46.920Z,3.00
2018-05-09T00:18:13.852Z,3.10
2018-05-09T00:20:40.613Z,3.27
2018-05-09T00:23:07.296Z,3.37
2018-05-09T00:25:34.008Z,3.10
2018-05-09T00:28:00.689Z,2.90
2018-05-09T00:30:27.388Z,3.43
2018-05-09T00:32:54.115Z,2.87
2018-05-09T00:35:21.017Z,3.03
2018-05-09T00:37:47.986Z,3.40
2018-05-09T00:40:14.739Z,3.37
2018-05-09T00:42:41.839Z,3.10
2018-05-09T00:45:08.689Z,3.07
2018-05-09T00:47:35.400Z,3.30
2018-05-09T00:50:02.752Z,3.00
2018-05-09T00:52:29.474Z,3.93
2018-05-09T00:54:56.165Z,3.40
2018-05-09T00:57:22.911Z,2.83
2018-05-09T00:59:49.624Z,3.47
2018-05-09T01:02:16.352Z,2.83
2018-05-09T01:04:43.072Z,3.00
2018-05-09T01:07:09.768Z,3.40
2018-05-09T01:09:36.597Z,3.20
2018-05-09T01:12:03.294Z,3.10
2018-05-09T01:14:30.158Z,3.13
2018-05-09T01:16:56.764Z,4.23
2018-05-09T01:19:23.508Z,3.13
2018-05-09T01:21:50.340Z,2.90
2018-05-09T01:24:17.192Z,3.30
2018-05-09T01:26:44.192Z,3.00
2018-05-09T01:29:10.883Z,3.30
2018-05-09T01:31:37.834Z,3.37
2018-05-09T01:34:04.587Z,4.13
2018-05-09T01:36:31.413Z,3.27
2018-05-09T01:38:58.158Z,3.03
2018-05-09T01:41:24.931Z,3.70
2018-05-09T01:43:51.596Z,3.87
2018-05-09T01:46:18.354Z,3.47
2018-05-09T01:48:45.082Z,3.53
2018-05-09T01:51:11.780Z,3.83
2018-05-09T01:53:38.481Z,3.37
2018-05-09T01:56:05.201Z,3.43
2018-05-09T01:58:31.999Z,3.27
2018-05-09T02:00:58.691Z,3.30
2018-05-09T02:03:25.411Z,3.50
2018-05-09T02:05:52.128Z,3.37
2018-05-09T02:08:18.922Z,3.60
2018-05-09T02:10:45.605Z,3.37
2018-05-09T02:13:12.408Z,2.73
2018-05-09T02:15:39.103Z,3.80
2018-05-09T02:18:05.821Z,3.33
2018-05-09T02:20:32.559Z,3.30
2018-05-09T02:22:59.330Z,3.60
2018-05-09T02:25:26.032Z,3.63
2018-05-09T02:27:52.764Z,3.57
2018-05-09T02:30:19.440Z,3.37
2018-05-09T02:32:46.233Z,3.20
2018-05-09T02:35:12.938Z,3.50
2018-05-09T02:37:39.608Z,3.50
2018-05-09T02:40:06.359Z,3.37
2018-05-09T02:42:33.028Z,3.83
2018-05-09T02:44:59.756Z,3.10
2018-05-09T02:47:26.447Z,3.60
2018-05-09T02:49:53.142Z,3.40
2018-05-09T02:52:20.032Z,3.83
2018-05-09T02:54:46.707Z,3.50
2018-05-09T02:57:13.384Z,3.70
2018-05-09T02:59:40.100Z,3.13
2018-05-09T03:02:06.947Z,4.00
2018-05-09T03:04:33.665Z,3.63
2018-05-09T03:07:00.335Z,3.87
2018-05-09T03:09:27.058Z,3.77
2018-05-09T03:11:53.754Z,3.47
2018-05-09T03:14:20.458Z,4.20
2018-05-09T03:16:47.163Z,3.53
2018-05-09T03:19:13.924Z,3.90
2018-05-09T03:21:40.648Z,3.47
2018-05-09T03:24:07.331Z,3.73
2018-05-09T03:26:34.040Z,3.93
2018-05-09T03:29:00.764Z,3.63
2018-05-09T03:31:27.520Z,3.60
2018-05-09T03:33:54.217Z,3.43
2018-05-09T03:36:20.941Z,3.40
2018-05-09T03:38:47.668Z,3.80
2018-05-09T03:41:14.364Z,3.80
2018-05-09T03:43:41.068Z,4.10
2018-05-09T03:46:07.744Z,3.43
2018-05-09T03:48:34.460Z,4.13
2018-05-09T03:51:01.603Z,3.90
2018-05-09T03:53:28.305Z,3.87
2018-05-09T03:55:55.035Z,3.77
2018-05-09T03:58:21.775Z,3.80
2018-05-09T04:00:48.460Z,4.13
2018-05-09T04:03:21.231Z,4.20
2018-05-09T04:05:53.896Z,3.60
2018-05-09T04:08:26.522Z,3.80
2018-05-09T04:10:53.283Z,4.23
2018-05-09T04:13:20.029Z,3.90
2018-05-09T04:15:46.856Z,3.70
2018-05-09T04:18:13.638Z,4.27
2018-05-09T04:20:40.454Z,4.40
2018-05-09T04:23:07.254Z,3.97
2018-05-09T04:25:33.977Z,3.70
2018-05-09T04:28:00.787Z,4.17
2018-05-09T04:30:27.499Z,4.70
2018-05-09T04:32:54.273Z,4.33
2018-05-09T04:35:21.059Z,4.50
2018-05-09T04:37:47.782Z,3.90
2018-05-09T04:40:14.557Z,3.97
2018-05-09T04:42:41.242Z,4.67
2018-05-09T04:45:07.933Z,3.87
2018-05-09T04:47:34.942Z,4.30
2018-05-09T04:50:01.641Z,4.87
2018-05-09T04:52:28.341Z,4.10
2018-05-09T04:54:55.044Z,5.03
2018-05-09T04:57:21.872Z,5.03
2018-05-09T04:59:48.552Z,4.70
2018-05-09T05:02:15.272Z,4.60
2018-05-09T05:04:41.939Z,4.63
2018-05-09T05:07:08.757Z,4.60
2018-05-09T05:09:35.482Z,4.97
2018-05-09T05:12:02.289Z,4.53
2018-05-09T05:14:29.224Z,4.90
2018-05-09T05:16:56.069Z,4.43
2018-05-09T05:19:23.078Z,5.30
2018-05-09T05:21:49.793Z,4.67
2018-05-09T05:24:16.497Z,4.60
2018-05-09T05:26:43.331Z,4.63
2018-05-09T05:29:10.025Z,4.37
2018-05-09T05:31:36.763Z,5.17
2018-05-09T05:34:03.463Z,5.63
2018-05-09T05:36:30.246Z,4.83
2018-05-09T05:38:56.958Z,5.13
2018-05-09T05:41:23.653Z,4.80
2018-05-09T05:43:50.396Z,5.10
2018-05-09T05:46:17.213Z,5.30
2018-05-09T05:48:43.978Z,4.60
2018-05-09T05:51:11.707Z,4.50
2018-05-09T05:53:38.396Z,4.40
2018-05-09T05:56:05.246Z,4.27
2018-05-09T05:58:31.964Z,4.03
2018-05-09T06:00:58.693Z,3.80
2018-05-09T06:03:25.425Z,3.80
2018-05-09T06:05:52.180Z,4.17
2018-05-09T06:08:18.841Z,4.50
2018-05-09T06:10:45.565Z,4.17
2018-05-09T06:13:12.368Z,4.70
2018-05-09T06:15:39.083Z,4.47
2018-05-09T06:18:05.842Z,4.50
2018-05-09T06:20:32.584Z,4.43
2018-05-09T06:22:59.376Z,4.70
2018-05-09T06:25:26.272Z,5.00
2018-05-09T06:27:53.006Z,5.17
2018-05-09T06:30:19.722Z,4.40
2018-05-09T06:32:46.429Z,4.80
2018-05-09T06:35:13.199Z,4.90
2018-05-09T06:37:40.207Z,4.80
2018-05-09T06:40:06.841Z,4.67
2018-05-09T06:42:33.553Z,5.00
2018-05-09T06:45:00.280Z,4.70
2018-05-09T06:47:27.034Z,5.27
2018-05-09T06:49:53.855Z,4.27
2018-05-09T06:52:20.501Z,5.07
2018-05-09T06:54:47.213Z,4.10
2018-05-09T06:57:13.918Z,4.63
2018-05-09T06:59:40.644Z,5.70
2018-05-09T07:02:07.419Z,4.87
2018-05-09T07:04:34.257Z,5.27
2018-05-09T07:07:01.027Z,5.50
2018-05-09T07:09:27.819Z,5.10
2018-05-09T07:11:54.432Z,4.90
2018-05-09T07:14:21.127Z,4.97
2018-05-09T07:16:47.858Z,4.67
2018-05-09T07:19:14.635Z,5.33
2018-05-09T07:21:41.393Z,5.43
2018-05-09T07:24:08.096Z,4.83
2018-05-09T07:26:34.824Z,4.97
2018-05-09T07:29:01.565Z,4.67
2018-05-09T07:31:29.155Z,4.90
2018-05-09T07:33:55.984Z,4.77
2018-05-09T07:36:22.795Z,5.40
2018-05-09T07:38:49.604Z,5.07
2018-05-09T07:41:17.022Z,4.60
2018-05-09T07:43:43.981Z,4.60
2018-05-09T07:46:11.016Z,4.53
2018-05-09T07:48:37.935Z,4.67
2018-05-09T07:51:04.756Z,5.03
2018-05-09T07:53:31.927Z,4.67
2018-05-09T07:55:58.927Z,4.80
2018-05-09T07:58:25.788Z,5.00
2018-05-09T08:00:52.665Z,5.00
2018-05-09T08:03:19.758Z,4.87
2018-05-09T08:05:46.454Z,5.07
2018-05-09T08:08:13.134Z,4.83
2018-05-09T08:10:39.845Z,4.67
2018-05-09T08:13:06.566Z,4.53
2018-05-09T08:15:33.332Z,4.90
2018-05-09T08:18:00.094Z,5.10
2018-05-09T08:20:26.827Z,5.17
2018-05-09T08:22:53.706Z,5.13
2018-05-09T08:25:20.432Z,4.37
2018-05-09T08:27:47.157Z,4.90
2018-05-09T08:30:14.678Z,4.70
2018-05-09T08:32:41.659Z,4.80
2018-05-09T08:35:08.483Z,4.40
2018-05-09T08:37:35.203Z,4.57
2018-05-09T08:40:01.882Z,4.50
2018-05-09T08:42:28.612Z,4.23
2018-05-09T08:44:55.321Z,4.60
2018-05-09T08:47:22.049Z,4.57
2018-05-09T08:49:48.901Z,4.10
2018-05-09T08:52:15.833Z,3.20
2018-05-09T08:54:42.544Z,3.67
2018-05-09T08:57:09.255Z,2.70
2018-05-09T08:59:36.313Z,3.37
2018-05-09T09:02:03.023Z,3.37
2018-05-09T09:04:29.787Z,2.87
2018-05-09T09:06:56.578Z,3.17
2018-05-09T09:09:23.837Z,3.50
2018-05-09T09:11:50.747Z,2.63
2018-05-09T09:14:17.481Z,3.57
2018-05-09T09:16:44.227Z,3.33
2018-05-09T09:19:11.034Z,2.83
2018-05-09T09:21:37.736Z,3.00
2018-05-09T09:24:04.446Z,2.60
2018-05-09T09:26:31.205Z,3.50
2018-05-09T09:28:57.918Z,2.90
2018-05-09T09:31:24.687Z,3.20
2018-05-09T09:33:51.440Z,3.07
2018-05-09T09:36:18.329Z,3.40
2018-05-09T09:38:45.044Z,2.90
2018-05-09T09:41:11.730Z,3.70
2018-05-09T09:43:39.038Z,3.50
2018-05-09T09:46:05.872Z,3.40
2018-05-09T09:48:32.554Z,3.83
2018-05-09T09:50:59.264Z,4.20
2018-05-09T09:53:25.962Z,4.23
2018-05-09T09:55:52.764Z,4.33
2018-05-09T09:58:19.513Z,3.50
2018-05-09T10:00:46.234Z,3.60
2018-05-09T10:03:12.999Z,3.83
2018-05-09T10:05:39.719Z,4.20
2018-05-09T10:08:06.463Z,3.47
2018-05-09T10:10:33.185Z,4.17
2018-05-09T10:13:00.281Z,3.47
2018-05-09T10:15:26.969Z,3.53
2018-05-09T10:17:53.853Z,4.20
2018-05-09T10:20:20.599Z,3.67
2018-05-09T10:22:47.298Z,4.20
2018-05-09T10:25:14.059Z,3.80
2018-05-09T10:27:41.876Z,3.93
2018-05-09T10:30:08.696Z,4.00
2018-05-09T10:32:35.630Z,4.20
2018-05-09T10:35:02.321Z,3.80
2018-05-09T10:37:29.272Z,4.20
2018-05-09T10:39:55.961Z,4.33
2018-05-09T10:42:22.673Z,4.70
2018-05-09T10:44:49.676Z,4.50
2018-05-09T10:47:16.507Z,4.37
2018-05-09T10:49:43.354Z,5.10
2018-05-09T10:52:10.105Z,4.50
2018-05-09T10:54:36.902Z,5.13
2018-05-09T10:57:03.766Z,4.80
2018-05-09T10:59:30.531Z,4.40
2018-05-09T11:01:57.198Z,4.67
2018-05-09T11:04:23.912Z,4.20
2018-05-09T11:06:50.894Z,4.17
2018-05-09T11:09:17.776Z,4.40
2018-05-09T11:11:44.523Z,4.53
2018-05-09T11:14:11.498Z,4.80
2018-05-09T11:16:38.199Z,4.20
2018-05-09T11:19:04.994Z,4.33
2018-05-09T11:21:31.715Z,4.60
2018-05-09T11:23:58.434Z,3.97
2018-05-09T11:26:25.123Z,4.50
2018-05-09T11:28:51.941Z,4.57
2018-05-09T11:31:18.689Z,5.23
2018-05-09T11:33:45.431Z,4.80
2018-05-09T11:36:12.435Z,6.00
2018-05-09T11:38:39.139Z,4.73
2018-05-09T11:41:06.052Z,4.80
2018-05-09T11:43:32.848Z,5.50
2018-05-09T11:45:59.671Z,4.70
2018-05-09T11:48:26.557Z,5.10
2018-05-09T11:50:53.256Z,5.40
2018-05-09T11:53:19.983Z,5.70
2018-05-09T11:55:46.823Z,5.67
2018-05-09T11:58:13.549Z,5.20
2018-05-09T12:00:40.302Z,4.40
2018-05-09T12:03:07.129Z,5.03
2018-05-09T12:05:33.942Z,5.80
2018-05-09T12:08:00.627Z,5.30
2018-05-09T12:10:27.536Z,5.40
2018-05-09T12:12:54.215Z,5.40
2018-05-09T12:15:21.035Z,5.37
2018-05-09T12:17:47.856Z,4.70
2018-05-09T12:20:14.612Z,4.70
2018-05-09T12:22:41.325Z,5.00
2018-05-09T12:25:08.092Z,5.43
2018-05-09T12:27:34.935Z,4.53
2018-05-09T12:30:01.629Z,4.37
2018-05-09T12:32:28.379Z,5.37
2018-05-09T12:34:55.061Z,4.33
2018-05-09T12:37:21.774Z,4.27
2018-05-09T12:39:48.570Z,4.63
2018-05-09T12:42:15.308Z,4.83
2018-05-09T12:44:42.030Z,4.07
2018-05-09T12:47:08.822Z,5.23
2018-05-09T12:49:35.624Z,4.87
2018-05-09T12:52:02.548Z,4.67
2018-05-09T12:54:29.502Z,5.03
2018-05-09T12:56:57.031Z,4.83
2018-05-09T12:59:23.781Z,4.60
2018-05-09T13:01:50.701Z,4.50
2018-05-09T13:04:17.695Z,4.67
2018-05-09T13:06:44.369Z,4.30
2018-05-09T13:09:11.277Z,4.60
2018-05-09T13:11:38.024Z,4.00
2018-05-09T13:14:04.780Z,4.30
2018-05-09T13:16:31.574Z,4.43
2018-05-09T13:18:58.457Z,4.10
2018-05-09T13:21:25.803Z,4.93
2018-05-09T13:23:52.560Z,5.27
2018-05-09T13:26:19.289Z,4.60
2018-05-09T13:28:46.292Z,4.93
2018-05-09T13:31:13.032Z,4.37
2018-05-09T13:33:39.754Z,5.33
2018-05-09T13:36:06.565Z,4.93
2018-05-09T13:38:33.301Z,5.40
2018-05-09T13:41:00.041Z,4.47
2018-05-09T13:43:26.723Z,4.67
2018-05-09T13:45:53.784Z,5.13
2018-05-09T13:48:20.501Z,5.23
2018-05-09T13:50:47.197Z,5.23
2018-05-09T13:53:13.923Z,5.00
2018-05-09T13:55:40.595Z,4.67
2018-05-09T13:58:07.415Z,4.40
2018-05-09T14:00:34.544Z,5.10
2018-05-09T14:03:01.358Z,4.70
2018-05-09T14:05:28.064Z,5.50
2018-05-09T14:07:54.888Z,5.00
2018-05-09T14:10:21.655Z,4.37
2018-05-09T14:12:48.393Z,4.90
2018-05-09T14:15:15.114Z,5.27
2018-05-09T14:17:42.040Z,4.50
2018-05-09T14:20:08.812Z,5.20
2018-05-09T14:22:35.497Z,4.80
2018-05-09T14:25:02.512Z,4.77
2018-05-09T14:27:29.254Z,4.10
2018-05-09T14:29:55.994Z,5.00
2018-05-09T14:32:22.744Z,5.03
2018-05-09T14:34:49.437Z,4.70
2018-05-09T14:37:16.133Z,4.80
2018-05-09T14:39:42.882Z,4.87
2018-05-09T14:42:09.615Z,4.77
2018-05-09T14:44:36.305Z,4.70
2018-05-09T14:47:03.060Z,4.50
2018-05-09T14:49:29.880Z,4.47
2018-05-09T14:51:56.787Z,4.23
2018-05-09T14:54:23.492Z,4.60
2018-05-09T14:56:50.220Z,4.80
2018-05-09T14:59:17.051Z,5.27
2018-05-09T15:01:43.766Z,4.20
2018-05-09T15:04:10.578Z,4.37
2018-05-09T15:06:37.316Z,4.20
2018-05-09T15:09:04.021Z,5.13
2018-05-09T15:11:30.818Z,4.07
2018-05-09T15:13:57.579Z,4.80
2018-05-09T15:16:24.538Z,4.63
2018-05-09T15:18:51.264Z,4.87
2018-05-09T15:21:18.251Z,4.83
2018-05-09T15:23:45.052Z,4.80
2018-05-09T15:26:11.773Z,5.40
2018-05-09T15:28:38.478Z,4.27
2018-05-09T15:31:05.204Z,4.27
2018-05-09T15:33:31.939Z,4.80
2018-05-09T15:35:58.629Z,5.00
2018-05-09T15:38:25.388Z,4.77
2018-05-09T15:40:52.153Z,4.63
2018-05-09T15:43:18.940Z,4.60
2018-05-09T15:45:45.654Z,4.70
2018-05-09T15:48:12.449Z,5.10
2018-05-09T15:50:39.213Z,5.13
2018-05-09T15:53:06.069Z,4.40
2018-05-09T15:55:32.871Z,4.47
2018-05-09T15:58:01.023Z,4.30
2018-05-09T16:00:29.845Z,5.23
2018-05-09T16:02:56.530Z,4.37
2018-05-09T16:05:23.259Z,4.43
2018-05-09T16:07:50.080Z,4.30
2018-05-09T16:10:16.864Z,4.77
2018-05-09T16:12:43.642Z,4.53
2018-05-09T16:15:10.468Z,4.83
2018-05-09T16:17:37.177Z,5.00
2018-05-09T16:20:03.887Z,4.10
2018-05-09T16:22:30.801Z,4.73
2018-05-09T16:24:57.499Z,4.03
2018-05-09T16:27:24.210Z,4.80
2018-05-09T16:29:51.045Z,4.80
2018-05-09T16:32:17.798Z,4.23
2018-05-09T16:34:44.642Z,4.97
2018-05-09T16:37:11.683Z,4.17
2018-05-09T16:39:38.376Z,4.57
2018-05-09T16:42:05.074Z,4.87
2018-05-09T16:44:31.975Z,4.23
2018-05-09T16:46:58.767Z,4.53
2018-05-09T16:49:25.573Z,5.00
2018-05-09T16:51:52.282Z,4.70
2018-05-09T16:54:19.034Z,4.67
2018-05-09T16:56:45.827Z,4.23
2018-05-09T16:59:12.706Z,4.40
2018-05-09T17:01:39.573Z,4.20
2018-05-09T17:04:06.251Z,4.50
2018-05-09T17:06:32.947Z,4.63
2018-05-09T17:08:59.754Z,5.67
2018-05-09T17:11:26.449Z,4.50
2018-05-09T17:13:53.165Z,4.90
2018-05-09T17:16:19.982Z,4.30
2018-05-09T17:18:46.710Z,5.40
2018-05-09T17:21:19.220Z,4.90
2018-05-09T17:23:46.078Z,4.47
2018-05-09T17:26:12.921Z,4.37
2018-05-09T17:28:40.608Z,5.33
2018-05-09T17:31:07.304Z,4.87
2018-05-09T17:33:34.191Z,4.50
2018-05-09T17:36:00.973Z,5.40
2018-05-09T17:38:27.735Z,5.23
2018-05-09T17:40:54.653Z,4.70
2018-05-09T17:43:21.422Z,4.60
2018-05-09T17:45:48.147Z,4.90
2018-05-09T17:48:14.931Z,5.10
2018-05-09T17:50:41.853Z,5.47
2018-05-09T17:53:08.526Z,5.20
2018-05-09T17:55:35.225Z,5.20
2018-05-09T17:58:01.899Z,4.93
2018-05-09T18:00:28.661Z,5.10
2018-05-09T18:02:55.499Z,5.13
2018-05-09T18:05:22.192Z,4.83
2018-05-09T18:07:48.922Z,4.87
2018-05-09T18:10:15.764Z,4.90
2018-05-09T18:12:42.974Z,4.73
2018-05-09T18:15:09.723Z,5.07
2018-05-09T18:17:36.463Z,5.00
2018-05-09T18:20:03.286Z,5.30
2018-05-09T18:22:30.001Z,5.00
2018-05-09T18:24:56.738Z,5.40
2018-05-09T18:27:23.528Z,5.23
2018-05-09T18:29:50.351Z,5.70
2018-05-09T18:32:17.082Z,5.10
2018-05-09T18:34:43.815Z,5.90
2018-05-09T18:37:10.506Z,5.60
2018-05-09T18:39:37.233Z,5.23
2018-05-09T18:42:04.000Z,5.60
2018-05-09T18:44:30.673Z,6.03
2018-05-09T18:46:57.493Z,5.10
2018-05-09T18:49:24.160Z,5.60
2018-05-09T18:51:50.843Z,5.10
2018-05-09T18:54:17.517Z,5.53
2018-05-09T18:56:44.212Z,5.53
2018-05-09T18:59:10.942Z,5.40
2018-05-09T19:01:37.642Z,6.40
2018-05-09T19:04:04.325Z,6.00
2018-05-09T19:06:31.195Z,5.40
2018-05-09T19:08:57.866Z,5.67
2018-05-09T19:11:24.545Z,5.60
2018-05-09T19:13:51.247Z,6.87
2018-05-09T19:16:17.965Z,6.50
2018-05-09T19:18:44.702Z,6.43
2018-05-09T19:21:11.435Z,7.57
2018-05-09T19:23:38.178Z,7.10
2018-05-09T19:26:04.870Z,6.47
2018-05-09T19:28:31.766Z,7.60
2018-05-09T19:30:58.505Z,7.40
2018-05-09T19:33:25.325Z,7.90
2018-05-09T19:35:52.016Z,8.10
2018-05-09T19:38:18.709Z,9.90
2018-05-09T19:40:45.467Z,10.90
2018-05-09T19:43:12.186Z,10.17
2018-05-09T19:45:38.897Z,9.80
2018-05-09T19:48:05.629Z,10.40
2018-05-09T19:50:32.326Z,10.83
2018-05-09T19:52:59.030Z,9.80
2018-05-09T19:55:25.705Z,10.70
2018-05-09T19:57:52.542Z,9.57
2018-05-09T20:00:19.529Z,9.97
2018-05-09T20:02:46.427Z,9.00
2018-05-09T20:05:13.512Z,9.00
2018-05-09T20:07:40.507Z,8.97
2018-05-09T20:10:07.890Z,8.50
2018-05-09T20:12:34.661Z,8.10
2018-05-09T20:15:01.373Z,8.20
2018-05-09T20:17:28.154Z,7.80
2018-05-09T20:19:54.891Z,8.07
2018-05-09T20:22:21.695Z,7.03
2018-05-09T20:24:48.517Z,7.67
2018-05-09T20:27:15.371Z,8.30
2018-05-09T20:29:42.100Z,8.00
2018-05-09T20:32:15.056Z,8.20
2018-05-09T20:34:41.819Z,8.43
2018-05-09T20:37:08.497Z,7.90
2018-05-09T20:39:35.483Z,8.30
2018-05-09T20:42:02.468Z,8.67
2018-05-09T20:44:29.111Z,8.03
2018-05-09T20:46:56.089Z,7.50
2018-05-09T20:49:22.782Z,7.77
2018-05-09T20:51:50.358Z,8.07
2018-05-09T20:54:17.049Z,7.43
2018-05-09T20:56:43.737Z,7.93
2018-05-09T20:59:10.448Z,8.03
2018-05-09T21:01:43.111Z,8.90
2018-05-09T21:04:10.095Z,8.07
2018-05-09T21:06:36.901Z,8.40
2018-05-09T21:09:04.570Z,8.83
2018-05-09T21:11:31.271Z,8.07
2018-05-09T21:13:58.282Z,8.17
2018-05-09T21:16:25.064Z,7.90
2018-05-09T21:18:51.892Z,8.40
2018-05-09T21:21:18.687Z,8.10
2018-05-09T21:23:45.404Z,8.50
2018-05-09T21:26:12.269Z,8.60
2018-05-09T21:28:39.177Z,8.53
2018-05-09T21:31:05.871Z,9.47
2018-05-09T21:33:32.574Z,8.60
2018-05-09T21:35:59.315Z,8.47
2018-05-09T21:38:26.005Z,9.77
2018-05-09T21:40:52.924Z,8.80
2018-05-09T21:43:19.805Z,9.00
2018-05-09T21:45:46.509Z,9.30
2018-05-09T21:48:13.210Z,7.70
2018-05-09T21:50:39.955Z,9.30
2018-05-09T21:53:06.747Z,10.20
2018-05-09T21:55:33.490Z,9.17
2018-05-09T21:58:00.263Z,9.20
2018-05-09T22:00:27.119Z,8.63
2018-05-09T22:02:53.840Z,8.40
2018-05-09T22:05:20.576Z,8.63
2018-05-09T22:07:47.274Z,9.00
2018-05-09T22:10:14.233Z,7.70
2018-05-09T22:12:40.976Z,7.80
2018-05-09T22:15:07.754Z,8.43
2018-05-09T22:17:34.554Z,8.77
2018-05-09T22:20:01.265Z,8.23
2018-05-09T22:22:27.981Z,8.47
2018-05-09T22:24:54.750Z,8.00
2018-05-09T22:27:21.471Z,8.40
2018-05-09T22:29:48.177Z,7.73
2018-05-09T22:32:15.040Z,8.90
2018-05-09T22:34:41.892Z,8.50
2018-05-09T22:37:08.561Z,8.80
2018-05-09T22:39:35.371Z,8.87
2018-05-09T22:42:02.078Z,9.90
2018-05-09T22:44:28.764Z,9.10
2018-05-09T22:46:56.468Z,8.73
2018-05-09T22:49:23.136Z,9.20
2018-05-09T22:51:49.848Z,8.30
2018-05-09T22:54:16.624Z,8.40
2018-05-09T22:56:43.361Z,8.90
2018-05-09T22:59:10.056Z,9.40
2018-05-09T23:01:36.833Z,9.63
2018-05-09T23:04:03.559Z,9.93
2018-05-09T23:06:30.275Z,9.90
2018-05-09T23:08:57.006Z,10.20
2018-05-09T23:11:23.749Z,9.40
2018-05-09T23:13:50.444Z,10.13
2018-05-09T23:16:17.157Z,10.77
2018-05-09T23:18:44.169Z,10.23
2018-05-09T23:21:10.951Z,9.90
2018-05-09T23:23:37.695Z,10.53
2018-05-09T23:26:04.444Z,9.90
2018-05-09T23:28:31.138Z,11.03
2018-05-09T23:30:57.911Z,10.80
2018-05-09T23:33:24.608Z,9.83
2018-05-09T23:35:51.315Z,9.63
2018-05-09T23:38:18.021Z,10.00
2018-05-09T23:40:44.843Z,8.90
2018-05-09T23:43:11.506Z,9.70
2018-05-09T23:45:38.219Z,9.93
2018-05-09T23:48:04.938Z,8.53
2018-05-09T23:50:32.366Z,9.83
2018-05-09T23:52:59.168Z,10.07
2018-05-09T23:55:25.893Z,9.30
2018-05-09T23:57:52.655Z,11.10
